Kouseimaru No3 — JD3480 — position and weather

sailwx.info

Track history (hours):
 
Tides and Currents Weather Stations Pressure Air Temp Water Temp Dewpoint Dewpoint Depression Visibility Wind Speed Wind Dir Waves Ship Positions

Kouseimaru No3

Last reported at 2017-Dec-18 12:57 UTC. Time now 2017-Dec-18 14:32 UTC.
Position N 35°37' E 139°58'.

Length 75 m; draft 4 m.

Type: Cargo ship. MMSI: 431004193.

Date/timePositionNaut miles runAvg speedWind from/ knotsBaromVisibWave heightAir tempDewpointWater temp
2017-Dec-18 12:57N 35°37' E 139°58'0 0.0
2017-Dec-18 12:15N 35°37' E 139°58'0 0.0
2017-Dec-18 11:57N 35°37' E 139°58'0 0.0
2017-Dec-18 11:20N 35°37' E 139°58'0 0.0
2017-Dec-18 10:57N 35°37' E 139°58'0 0.0
2017-Dec-18 08:56N 35°37' E 139°58'0 0.0
2017-Dec-18 08:20N 35°37' E 139°58'0 0.0
2017-Dec-18 07:57N 35°37' E 139°58'0 0.0
2017-Dec-18 07:26N 35°37' E 139°58'1 1.8
2017-Dec-18 06:55N 35°38' E 139°58'1 0.1
2017-Dec-18 03:19N 35°37' E 139°58'1 2.3
2017-Dec-18 03:00N 35°37' E 139°58'0 0.0
2017-Dec-18 02:30N 35°37' E 139°58'0 0.0
2017-Dec-18 01:56N 35°37' E 139°58'0 0.1
2017-Dec-18 01:30N 35°37' E 139°58'0 0.1
2017-Dec-18 00:58N 35°37' E 139°58'0 0.0
2017-Dec-18 00:29N 35°37' E 139°58'0 0.0
2017-Dec-18 00:00N 35°37' E 139°58'0 0.0
2017-Dec-17 23:30N 35°37' E 139°58'0 0.0
2017-Dec-17 19:54N 35°37' E 139°58'0 0.0
2017-Dec-17 17:27N 35°37' E 139°58'0 0.0
2017-Dec-17 16:14N 35°37' E 139°58'0 0.0
2017-Dec-17 12:15N 35°37' E 139°58'0 0.0
2017-Dec-17 11:13N 35°37' E 139°58'0 0.0
2017-Dec-17 10:42N 35°37' E 139°58'0 0.0
2017-Dec-17 10:19N 35°37' E 139°58'0 0.0
2017-Dec-17 09:59N 35°37' E 139°58'0 0.0
2017-Dec-17 08:40N 35°37' E 139°58'0 0.0
2017-Dec-17 08:28N 35°37' E 139°58'0 0.0
2017-Dec-17 03:59N 35°37' E 139°58'4 6.4
2017-Dec-17 03:20N 35°33' E 139°56'410.3
2017-Dec-17 02:56N 35°30' E 139°53'510.8
2017-Dec-17 02:30N 35°26' E 139°49'510.7
2017-Dec-17 02:00N 35°22' E 139°45'510.1
2017-Dec-17 01:30N 35°17' E 139°46'510.3
2017-Dec-17 01:00N 35°12' E 139°47'611.2
2017-Dec-17 00:30N 35°06' E 139°45'611.4
2017-Dec-17 00:00N 35°02' E 139°41'611.6
2017-Dec-16 23:29N 34°58' E 139°35'612.6
2017-Dec-16 23:00N 34°54' E 139°29'612.2
2017-Dec-16 22:30N 34°51' E 139°23'612.9
2017-Dec-16 22:00N 34°47' E 139°17'812.3
2017-Dec-16 21:19N 34°42' E 139°08'411.8
2017-Dec-16 21:00N 34°40' E 139°05'611.7
2017-Dec-16 20:30N 34°37' E 138°59'510.9
2017-Dec-16 20:00N 34°34' E 138°53'611.5
2017-Dec-16 19:29N 34°33' E 138°46'712.2
2017-Dec-16 18:55N 34°33' E 138°37'512.5
2017-Dec-16 18:29N 34°33' E 138°31'612.6
2017-Dec-16 18:00N 34°33' E 138°23'713.3
2017-Dec-16 17:30N 34°33' E 138°15'1313.2
2017-Dec-16 16:33N 34°32' E 137°60'112.3
2017-Dec-16 16:29N 34°32' E 137°59'612.4
2017-Dec-16 15:58N 34°32' E 137°51'6011.4
2017-Dec-16 10:45N 34°07' E 136°45'88 9.1
2017-Dec-16 01:08N 33°53' E 135°01'312.8
2017-Dec-16 00:54N 33°55' E 134°58'513.0
2017-Dec-16 00:29N 33°59' E 134°54'612.9
2017-Dec-16 00:00N 34°04' E 134°49'612.5
2017-Dec-15 23:30N 34°09' E 134°44'612.1
2017-Dec-15 23:00N 34°13' E 134°40'611.4
2017-Dec-15 22:30N 34°17' E 134°34'711.6
2017-Dec-15 21:56N 34°19' E 134°27'511.1
2017-Dec-15 21:30N 34°21' E 134°21'810.5
2017-Dec-15 20:44N 34°24' E 134°12'20 0.5
2017-Dec-14 06:32N 34°30' E 134°36'013.1
2017-Dec-14 06:31N 34°30' E 134°36'612.0
2017-Dec-14 06:01N 34°32' E 134°43'611.9
2017-Dec-14 05:31N 34°34' E 134°50'611.3
2017-Dec-14 05:01N 34°36' E 134°56'5 9.7
2017-Dec-14 04:31N 34°37' E 135°02'5 9.6
2017-Dec-14 04:01N 34°36' E 135°08'611.2
2017-Dec-14 03:31N 34°36' E 135°14'612.0
2017-Dec-14 03:01N 34°36' E 135°22'4 8.2
2017-Dec-14 02:29N 34°35' E 135°26'0 0.0
2017-Dec-14 01:59N 34°35' E 135°26'0 0.0
2017-Dec-14 01:29N 34°35' E 135°26'0 0.0
2017-Dec-14 00:59N 34°35' E 135°26'0 0.0
2017-Dec-14 00:29N 34°35' E 135°26'0 0.0
2017-Dec-13 23:59N 34°35' E 135°26'0 0.0
2017-Dec-13 23:29N 34°35' E 135°26'0 0.1
2017-Dec-13 22:59N 34°35' E 135°26'0 0.1
2017-Dec-13 22:31N 34°35' E 135°26'2 3.3
2017-Dec-13 22:01N 34°36' E 135°25'4 8.8
2017-Dec-13 21:31N 34°36' E 135°19'611.9
2017-Dec-13 21:00N 34°35' E 135°12'611.7
2017-Dec-13 20:31N 34°35' E 135°05'5 9.4
2017-Dec-13 20:00N 34°37' E 135°00'5 9.8
2017-Dec-13 19:31N 34°35' E 134°55'510.6
2017-Dec-13 19:00N 34°33' E 134°49'611.6
2017-Dec-13 18:30N 34°31' E 134°42'611.8
2017-Dec-13 18:00N 34°29' E 134°36'611.8
2017-Dec-13 17:30N 34°26' E 134°29'1511.8
2017-Dec-13 16:15N 34°25' E 134°11'25 1.2
2017-Dec-12 18:57N 34°15' E 134°39'610.5
2017-Dec-12 18:24N 34°10' E 134°43'511.4
2017-Dec-12 17:58N 34°07' E 134°47'911.1
2017-Dec-12 17:10N 33°60' E 134°54'210.9
2017-Dec-12 17:00N 33°59' E 134°56'113 3.4
2017-Dec-11 07:40N 34°41' E 137°03'1 5.1
2017-Dec-11 07:30N 34°40' E 137°02'711.2
2017-Dec-11 06:52N 34°39' E 136°54'512.9
2017-Dec-11 06:30N 34°39' E 136°48'612.6
2017-Dec-11 06:00N 34°41' E 136°40'612.6
2017-Dec-11 05:30N 34°41' E 136°33'1 0.5
2017-Dec-11 03:57N 34°41' E 136°32'0 0.0
2017-Dec-11 03:27N 34°41' E 136°32'0 0.0
2017-Dec-11 02:32N 34°41' E 136°32'0 0.0
2017-Dec-11 02:08N 34°41' E 136°32'0 0.0
2017-Dec-11 01:51N 34°41' E 136°32'0 0.0
2017-Dec-11 01:27N 34°41' E 136°32'0 0.0
2017-Dec-11 00:57N 34°41' E 136°32'0 0.0
2017-Dec-10 23:33N 34°41' E 136°32'0 0.0
2017-Dec-10 23:27N 34°41' E 136°32'0 0.0
2017-Dec-10 22:57N 34°41' E 136°32'0 0.0
2017-Dec-10 22:27N 34°41' E 136°32'0 0.0
2017-Dec-10 21:57N 34°41' E 136°32'0 0.0
2017-Dec-10 21:27N 34°41' E 136°32'0 0.0
2017-Dec-10 20:51N 34°41' E 136°32'0 0.0
2017-Dec-10 20:27N 34°41' E 136°32'0 0.0
2017-Dec-10 19:56N 34°41' E 136°32'0 0.0
2017-Dec-10 19:26N 34°41' E 136°32'0 0.0
2017-Dec-10 18:57N 34°41' E 136°32'0 0.0
2017-Dec-10 18:27N 34°41' E 136°32'0 0.0
2017-Dec-10 17:56N 34°41' E 136°32'0 0.0
2017-Dec-10 17:26N 34°41' E 136°32'0 0.0
2017-Dec-10 16:56N 34°41' E 136°32'0 0.0
2017-Dec-10 15:32N 34°41' E 136°32'0 0.0
2017-Dec-10 15:20N 34°41' E 136°32'0 0.0
2017-Dec-10 14:51N 34°41' E 136°32'0 0.0
2017-Dec-10 14:27N 34°41' E 136°32'0 0.0
2017-Dec-10 13:57N 34°41' E 136°32'0 0.0
2017-Dec-10 13:26N 34°41' E 136°32'0 0.0
2017-Dec-10 12:56N 34°41' E 136°32'0 0.0
2017-Dec-10 12:26N 34°41' E 136°32'0 0.0
2017-Dec-10 11:51N 34°41' E 136°32'0 0.0
2017-Dec-10 11:27N 34°41' E 136°32'0 0.0
2017-Dec-10 10:50N 34°41' E 136°32'0 0.0
2017-Dec-10 10:27N 34°41' E 136°32'0 0.0
2017-Dec-10 09:57N 34°41' E 136°32'0 0.0
2017-Dec-10 09:08N 34°41' E 136°32'0 0.0
2017-Dec-10 08:50N 34°41' E 136°32'0 0.0
2017-Dec-10 08:27N 34°41' E 136°32'0 0.0
2017-Dec-10 07:50N 34°41' E 136°32'0 0.0
2017-Dec-10 07:20N 34°41' E 136°32'0 0.0
2017-Dec-10 05:50N 34°41' E 136°32'0 0.0
2017-Dec-10 05:26N 34°41' E 136°32'0 0.0
2017-Dec-10 04:56N 34°41' E 136°32'0 0.0
2017-Dec-10 04:20N 34°41' E 136°32'0 0.0
2017-Dec-10 03:50N 34°41' E 136°32'0 0.0
2017-Dec-10 01:08N 34°41' E 136°32'0 0.0
2017-Dec-10 00:56N 34°41' E 136°32'0 0.0
2017-Dec-10 00:26N 34°41' E 136°32'0 0.0
2017-Dec-09 23:38N 34°41' E 136°32'0 0.0
2017-Dec-09 23:26N 34°41' E 136°32'0 0.0
2017-Dec-09 22:56N 34°41' E 136°32'0 0.0
2017-Dec-09 22:26N 34°41' E 136°32'0 0.0
2017-Dec-09 21:56N 34°41' E 136°32'0 0.0
2017-Dec-09 21:26N 34°41' E 136°32'0 0.0
2017-Dec-09 20:56N 34°41' E 136°32'0 0.0
2017-Dec-09 20:26N 34°41' E 136°32'0 0.0
2017-Dec-09 19:56N 34°41' E 136°32'0 0.0
2017-Dec-09 19:26N 34°41' E 136°32'0 0.0
2017-Dec-09 18:56N 34°41' E 136°32'0 0.0
2017-Dec-09 18:20N 34°41' E 136°32'0 0.0
2017-Dec-09 17:56N 34°41' E 136°32'0 0.0
2017-Dec-09 17:26N 34°41' E 136°32'0 0.0
2017-Dec-09 16:56N 34°41' E 136°32'0 0.0
2017-Dec-09 16:26N 34°41' E 136°32'0 0.0
2017-Dec-09 15:50N 34°41' E 136°32'0 0.0
2017-Dec-09 15:20N 34°41' E 136°32'0 0.0
2017-Dec-09 14:56N 34°41' E 136°32'0 0.0
2017-Dec-09 14:26N 34°41' E 136°32'0 0.0
2017-Dec-09 13:50N 34°41' E 136°32'0 0.0
2017-Dec-09 13:26N 34°41' E 136°32'0 0.0
2017-Dec-09 12:56N 34°41' E 136°32'0 0.0
2017-Dec-09 12:26N 34°41' E 136°32'0 0.0
2017-Dec-09 11:56N 34°41' E 136°32'0 0.0
2017-Dec-09 11:20N 34°41' E 136°32'0 0.0
2017-Dec-09 10:56N 34°41' E 136°32'0 0.0
2017-Dec-09 10:23N 34°41' E 136°32'0 0.0
2017-Dec-09 09:56N 34°41' E 136°32'0 0.0
2017-Dec-09 09:26N 34°41' E 136°32'0 0.0
2017-Dec-09 08:56N 34°41' E 136°32'0 0.0
2017-Dec-09 08:26N 34°41' E 136°32'0 0.0
2017-Dec-09 07:56N 34°41' E 136°32'0 0.0
2017-Dec-09 07:26N 34°41' E 136°32'0 0.0
2017-Dec-09 06:56N 34°41' E 136°32'0 0.0
2017-Dec-09 06:26N 34°41' E 136°32'0 0.0
2017-Dec-09 05:56N 34°41' E 136°32'0 0.0
2017-Dec-09 05:14N 34°41' E 136°32'0 0.0
2017-Dec-09 04:56N 34°41' E 136°32'0 0.0
2017-Dec-09 04:26N 34°41' E 136°32'0 0.0
2017-Dec-09 03:56N 34°41' E 136°32'0 0.0
2017-Dec-09 03:08N 34°41' E 136°32'0 0.0
2017-Dec-09 02:50N 34°41' E 136°32'0 0.0
2017-Dec-09 02:26N 34°41' E 136°32'0 0.0
2017-Dec-09 01:26N 34°41' E 136°32'0 0.0
2017-Dec-09 00:56N 34°41' E 136°32'0 0.0
2017-Dec-09 00:26N 34°41' E 136°32'0 0.0
2017-Dec-08 23:56N 34°41' E 136°32'0 0.0
2017-Dec-08 23:20N 34°41' E 136°32'0 0.0
2017-Dec-08 22:56N 34°41' E 136°32'0 0.0
2017-Dec-08 22:26N 34°41' E 136°32'0 0.0
2017-Dec-08 21:56N 34°41' E 136°32'0 0.0
2017-Dec-08 20:32N 34°41' E 136°32'0 0.1
2017-Dec-08 20:26N 34°41' E 136°32'0 0.0
2017-Dec-08 19:56N 34°41' E 136°32'0 0.0
2017-Dec-08 19:26N 34°41' E 136°32'0 0.0
2017-Dec-08 18:20N 34°41' E 136°32'0 0.0
2017-Dec-08 17:44N 34°41' E 136°32'0 0.0
2017-Dec-08 17:14N 34°41' E 136°32'0 0.0
2017-Dec-08 16:50N 34°41' E 136°32'0 0.0
2017-Dec-08 16:26N 34°41' E 136°32'0 0.0
2017-Dec-08 15:56N 34°41' E 136°32'0 0.0
2017-Dec-08 15:26N 34°41' E 136°32'0 0.0
2017-Dec-08 14:32N 34°41' E 136°32'0 0.0
2017-Dec-08 14:26N 34°41' E 136°32'0 0.0
2017-Dec-08 13:56N 34°41' E 136°32'0 0.0
2017-Dec-08 13:26N 34°41' E 136°32'  
Track history (hours):
 
Tides and Currents Weather Stations Pressure Air Temp Water Temp Dewpoint Dewpoint Depression Visibility Wind Speed Wind Dir Waves Ship Positions

Kouseimaru No3

Last reported at 2017-Dec-18 12:57 UTC. Time now 2017-Dec-18 14:32 UTC.
Position N 35°37' E 139°58'.

Length 75 m; draft 4 m.

Type: Cargo ship. MMSI: 431004193.

Date/timePositionNaut miles runAvg speedWind from/ knotsBaromVisibWave heightAir tempDewpointWater temp
2017-Dec-18 12:57N 35°37' E 139°58'0 0.0
2017-Dec-18 12:15N 35°37' E 139°58'0 0.0
2017-Dec-18 11:57N 35°37' E 139°58'0 0.0
2017-Dec-18 11:20N 35°37' E 139°58'0 0.0
2017-Dec-18 10:57N 35°37' E 139°58'0 0.0
2017-Dec-18 08:56N 35°37' E 139°58'0 0.0
2017-Dec-18 08:20N 35°37' E 139°58'0 0.0
2017-Dec-18 07:57N 35°37' E 139°58'0 0.0
2017-Dec-18 07:26N 35°37' E 139°58'1 1.8
2017-Dec-18 06:55N 35°38' E 139°58'1 0.1
2017-Dec-18 03:19N 35°37' E 139°58'1 2.3
2017-Dec-18 03:00N 35°37' E 139°58'0 0.0
2017-Dec-18 02:30N 35°37' E 139°58'0 0.0
2017-Dec-18 01:56N 35°37' E 139°58'0 0.1
2017-Dec-18 01:30N 35°37' E 139°58'0 0.1
2017-Dec-18 00:58N 35°37' E 139°58'0 0.0
2017-Dec-18 00:29N 35°37' E 139°58'0 0.0
2017-Dec-18 00:00N 35°37' E 139°58'0 0.0
2017-Dec-17 23:30N 35°37' E 139°58'0 0.0
2017-Dec-17 19:54N 35°37' E 139°58'0 0.0
2017-Dec-17 17:27N 35°37' E 139°58'0 0.0
2017-Dec-17 16:14N 35°37' E 139°58'0 0.0
2017-Dec-17 12:15N 35°37' E 139°58'0 0.0
2017-Dec-17 11:13N 35°37' E 139°58'0 0.0
2017-Dec-17 10:42N 35°37' E 139°58'0 0.0
2017-Dec-17 10:19N 35°37' E 139°58'0 0.0
2017-Dec-17 09:59N 35°37' E 139°58'0 0.0
2017-Dec-17 08:40N 35°37' E 139°58'0 0.0
2017-Dec-17 08:28N 35°37' E 139°58'0 0.0
2017-Dec-17 03:59N 35°37' E 139°58'4 6.4
2017-Dec-17 03:20N 35°33' E 139°56'410.3
2017-Dec-17 02:56N 35°30' E 139°53'510.8
2017-Dec-17 02:30N 35°26' E 139°49'510.7
2017-Dec-17 02:00N 35°22' E 139°45'510.1
2017-Dec-17 01:30N 35°17' E 139°46'510.3
2017-Dec-17 01:00N 35°12' E 139°47'611.2
2017-Dec-17 00:30N 35°06' E 139°45'611.4
2017-Dec-17 00:00N 35°02' E 139°41'611.6
2017-Dec-16 23:29N 34°58' E 139°35'612.6
2017-Dec-16 23:00N 34°54' E 139°29'612.2
2017-Dec-16 22:30N 34°51' E 139°23'612.9
2017-Dec-16 22:00N 34°47' E 139°17'812.3
2017-Dec-16 21:19N 34°42' E 139°08'411.8
2017-Dec-16 21:00N 34°40' E 139°05'611.7
2017-Dec-16 20:30N 34°37' E 138°59'510.9
2017-Dec-16 20:00N 34°34' E 138°53'611.5
2017-Dec-16 19:29N 34°33' E 138°46'712.2
2017-Dec-16 18:55N 34°33' E 138°37'512.5
2017-Dec-16 18:29N 34°33' E 138°31'612.6
2017-Dec-16 18:00N 34°33' E 138°23'713.3
2017-Dec-16 17:30N 34°33' E 138°15'1313.2
2017-Dec-16 16:33N 34°32' E 137°60'112.3
2017-Dec-16 16:29N 34°32' E 137°59'612.4
2017-Dec-16 15:58N 34°32' E 137°51'6011.4
2017-Dec-16 10:45N 34°07' E 136°45'88 9.1
2017-Dec-16 01:08N 33°53' E 135°01'312.8
2017-Dec-16 00:54N 33°55' E 134°58'513.0
2017-Dec-16 00:29N 33°59' E 134°54'612.9
2017-Dec-16 00:00N 34°04' E 134°49'612.5
2017-Dec-15 23:30N 34°09' E 134°44'612.1
2017-Dec-15 23:00N 34°13' E 134°40'611.4
2017-Dec-15 22:30N 34°17' E 134°34'711.6
2017-Dec-15 21:56N 34°19' E 134°27'511.1
2017-Dec-15 21:30N 34°21' E 134°21'810.5
2017-Dec-15 20:44N 34°24' E 134°12'20 0.5
2017-Dec-14 06:32N 34°30' E 134°36'013.1
2017-Dec-14 06:31N 34°30' E 134°36'612.0
2017-Dec-14 06:01N 34°32' E 134°43'611.9
2017-Dec-14 05:31N 34°34' E 134°50'611.3
2017-Dec-14 05:01N 34°36' E 134°56'5 9.7
2017-Dec-14 04:31N 34°37' E 135°02'5 9.6
2017-Dec-14 04:01N 34°36' E 135°08'611.2
2017-Dec-14 03:31N 34°36' E 135°14'612.0
2017-Dec-14 03:01N 34°36' E 135°22'4 8.2
2017-Dec-14 02:29N 34°35' E 135°26'0 0.0
2017-Dec-14 01:59N 34°35' E 135°26'0 0.0
2017-Dec-14 01:29N 34°35' E 135°26'0 0.0
2017-Dec-14 00:59N 34°35' E 135°26'0 0.0
2017-Dec-14 00:29N 34°35' E 135°26'0 0.0
2017-Dec-13 23:59N 34°35' E 135°26'0 0.0
2017-Dec-13 23:29N 34°35' E 135°26'0 0.1
2017-Dec-13 22:59N 34°35' E 135°26'0 0.1
2017-Dec-13 22:31N 34°35' E 135°26'2 3.3
2017-Dec-13 22:01N 34°36' E 135°25'4 8.8
2017-Dec-13 21:31N 34°36' E 135°19'611.9
2017-Dec-13 21:00N 34°35' E 135°12'611.7
2017-Dec-13 20:31N 34°35' E 135°05'5 9.4
2017-Dec-13 20:00N 34°37' E 135°00'5 9.8
2017-Dec-13 19:31N 34°35' E 134°55'510.6
2017-Dec-13 19:00N 34°33' E 134°49'611.6
2017-Dec-13 18:30N 34°31' E 134°42'611.8
2017-Dec-13 18:00N 34°29' E 134°36'611.8
2017-Dec-13 17:30N 34°26' E 134°29'1511.8
2017-Dec-13 16:15N 34°25' E 134°11'25 1.2
2017-Dec-12 18:57N 34°15' E 134°39'610.5
2017-Dec-12 18:24N 34°10' E 134°43'511.4
2017-Dec-12 17:58N 34°07' E 134°47'911.1
2017-Dec-12 17:10N 33°60' E 134°54'210.9
2017-Dec-12 17:00N 33°59' E 134°56'113 3.4
2017-Dec-11 07:40N 34°41' E 137°03'1 5.1
2017-Dec-11 07:30N 34°40' E 137°02'711.2
2017-Dec-11 06:52N 34°39' E 136°54'512.9
2017-Dec-11 06:30N 34°39' E 136°48'612.6
2017-Dec-11 06:00N 34°41' E 136°40'612.6
2017-Dec-11 05:30N 34°41' E 136°33'1 0.5
2017-Dec-11 03:57N 34°41' E 136°32'0 0.0
2017-Dec-11 03:27N 34°41' E 136°32'0 0.0
2017-Dec-11 02:32N 34°41' E 136°32'0 0.0
2017-Dec-11 02:08N 34°41' E 136°32'0 0.0
2017-Dec-11 01:51N 34°41' E 136°32'0 0.0
2017-Dec-11 01:27N 34°41' E 136°32'0 0.0
2017-Dec-11 00:57N 34°41' E 136°32'0 0.0
2017-Dec-10 23:33N 34°41' E 136°32'0 0.0
2017-Dec-10 23:27N 34°41' E 136°32'0 0.0
2017-Dec-10 22:57N 34°41' E 136°32'0 0.0
2017-Dec-10 22:27N 34°41' E 136°32'0 0.0
2017-Dec-10 21:57N 34°41' E 136°32'0 0.0
2017-Dec-10 21:27N 34°41' E 136°32'0 0.0
2017-Dec-10 20:51N 34°41' E 136°32'0 0.0
2017-Dec-10 20:27N 34°41' E 136°32'0 0.0
2017-Dec-10 19:56N 34°41' E 136°32'0 0.0
2017-Dec-10 19:26N 34°41' E 136°32'0 0.0
2017-Dec-10 18:57N 34°41' E 136°32'0 0.0
2017-Dec-10 18:27N 34°41' E 136°32'0 0.0
2017-Dec-10 17:56N 34°41' E 136°32'0 0.0
2017-Dec-10 17:26N 34°41' E 136°32'0 0.0
2017-Dec-10 16:56N 34°41' E 136°32'0 0.0
2017-Dec-10 15:32N 34°41' E 136°32'0 0.0
2017-Dec-10 15:20N 34°41' E 136°32'0 0.0
2017-Dec-10 14:51N 34°41' E 136°32'0 0.0
2017-Dec-10 14:27N 34°41' E 136°32'0 0.0
2017-Dec-10 13:57N 34°41' E 136°32'0 0.0
2017-Dec-10 13:26N 34°41' E 136°32'0 0.0
2017-Dec-10 12:56N 34°41' E 136°32'0 0.0
2017-Dec-10 12:26N 34°41' E 136°32'0 0.0
2017-Dec-10 11:51N 34°41' E 136°32'0 0.0
2017-Dec-10 11:27N 34°41' E 136°32'0 0.0
2017-Dec-10 10:50N 34°41' E 136°32'0 0.0
2017-Dec-10 10:27N 34°41' E 136°32'0 0.0
2017-Dec-10 09:57N 34°41' E 136°32'0 0.0
2017-Dec-10 09:08N 34°41' E 136°32'0 0.0
2017-Dec-10 08:50N 34°41' E 136°32'0 0.0
2017-Dec-10 08:27N 34°41' E 136°32'0 0.0
2017-Dec-10 07:50N 34°41' E 136°32'0 0.0
2017-Dec-10 07:20N 34°41' E 136°32'0 0.0
2017-Dec-10 05:50N 34°41' E 136°32'0 0.0
2017-Dec-10 05:26N 34°41' E 136°32'0 0.0
2017-Dec-10 04:56N 34°41' E 136°32'0 0.0
2017-Dec-10 04:20N 34°41' E 136°32'0 0.0
2017-Dec-10 03:50N 34°41' E 136°32'0 0.0
2017-Dec-10 01:08N 34°41' E 136°32'0 0.0
2017-Dec-10 00:56N 34°41' E 136°32'0 0.0
2017-Dec-10 00:26N 34°41' E 136°32'0 0.0
2017-Dec-09 23:38N 34°41' E 136°32'0 0.0
2017-Dec-09 23:26N 34°41' E 136°32'0 0.0
2017-Dec-09 22:56N 34°41' E 136°32'0 0.0
2017-Dec-09 22:26N 34°41' E 136°32'0 0.0
2017-Dec-09 21:56N 34°41' E 136°32'0 0.0
2017-Dec-09 21:26N 34°41' E 136°32'0 0.0
2017-Dec-09 20:56N 34°41' E 136°32'0 0.0
2017-Dec-09 20:26N 34°41' E 136°32'0 0.0
2017-Dec-09 19:56N 34°41' E 136°32'0 0.0
2017-Dec-09 19:26N 34°41' E 136°32'0 0.0
2017-Dec-09 18:56N 34°41' E 136°32'0 0.0
2017-Dec-09 18:20N 34°41' E 136°32'0 0.0
2017-Dec-09 17:56N 34°41' E 136°32'0 0.0
2017-Dec-09 17:26N 34°41' E 136°32'0 0.0
2017-Dec-09 16:56N 34°41' E 136°32'0 0.0
2017-Dec-09 16:26N 34°41' E 136°32'0 0.0
2017-Dec-09 15:50N 34°41' E 136°32'0 0.0
2017-Dec-09 15:20N 34°41' E 136°32'0 0.0
2017-Dec-09 14:56N 34°41' E 136°32'0 0.0
2017-Dec-09 14:26N 34°41' E 136°32'0 0.0
2017-Dec-09 13:50N 34°41' E 136°32'0 0.0
2017-Dec-09 13:26N 34°41' E 136°32'0 0.0
2017-Dec-09 12:56N 34°41' E 136°32'0 0.0
2017-Dec-09 12:26N 34°41' E 136°32'0 0.0
2017-Dec-09 11:56N 34°41' E 136°32'0 0.0
2017-Dec-09 11:20N 34°41' E 136°32'0 0.0
2017-Dec-09 10:56N 34°41' E 136°32'0 0.0
2017-Dec-09 10:23N 34°41' E 136°32'0 0.0
2017-Dec-09 09:56N 34°41' E 136°32'0 0.0
2017-Dec-09 09:26N 34°41' E 136°32'0 0.0
2017-Dec-09 08:56N 34°41' E 136°32'0 0.0
2017-Dec-09 08:26N 34°41' E 136°32'0 0.0
2017-Dec-09 07:56N 34°41' E 136°32'0 0.0
2017-Dec-09 07:26N 34°41' E 136°32'0 0.0
2017-Dec-09 06:56N 34°41' E 136°32'0 0.0
2017-Dec-09 06:26N 34°41' E 136°32'0 0.0
2017-Dec-09 05:56N 34°41' E 136°32'0 0.0
2017-Dec-09 05:14N 34°41' E 136°32'0 0.0
2017-Dec-09 04:56N 34°41' E 136°32'0 0.0
2017-Dec-09 04:26N 34°41' E 136°32'0 0.0
2017-Dec-09 03:56N 34°41' E 136°32'0 0.0
2017-Dec-09 03:08N 34°41' E 136°32'0 0.0
2017-Dec-09 02:50N 34°41' E 136°32'0 0.0
2017-Dec-09 02:26N 34°41' E 136°32'0 0.0
2017-Dec-09 01:26N 34°41' E 136°32'0 0.0
2017-Dec-09 00:56N 34°41' E 136°32'0 0.0
2017-Dec-09 00:26N 34°41' E 136°32'0 0.0
2017-Dec-08 23:56N 34°41' E 136°32'0 0.0
2017-Dec-08 23:20N 34°41' E 136°32'0 0.0
2017-Dec-08 22:56N 34°41' E 136°32'0 0.0
2017-Dec-08 22:26N 34°41' E 136°32'0 0.0
2017-Dec-08 21:56N 34°41' E 136°32'0 0.0
2017-Dec-08 20:32N 34°41' E 136°32'0 0.1
2017-Dec-08 20:26N 34°41' E 136°32'0 0.0
2017-Dec-08 19:56N 34°41' E 136°32'0 0.0
2017-Dec-08 19:26N 34°41' E 136°32'0 0.0
2017-Dec-08 18:20N 34°41' E 136°32'0 0.0
2017-Dec-08 17:44N 34°41' E 136°32'0 0.0
2017-Dec-08 17:14N 34°41' E 136°32'0 0.0
2017-Dec-08 16:50N 34°41' E 136°32'0 0.0
2017-Dec-08 16:26N 34°41' E 136°32'0 0.0
2017-Dec-08 15:56N 34°41' E 136°32'0 0.0
2017-Dec-08 15:26N 34°41' E 136°32'0 0.0
2017-Dec-08 14:32N 34°41' E 136°32'0 0.0
2017-Dec-08 14:26N 34°41' E 136°32'0 0.0
2017-Dec-08 13:56N 34°41' E 136°32'0 0.0
2017-Dec-08 13:26N 34°41' E 136°32'  

Dump ship's entire track history